sensor_id;sensor_type;location;lat;lon;timestamp;temperature;humidity
37806;DHT22;25082;50.870;0.022;2022-10-26T00:00:41;20.50;75.60
37806;DHT22;25082;50.870;0.022;2022-10-26T00:03:07;20.50;75.60
37806;DHT22;25082;50.870;0.022;2022-10-26T00:05:33;20.50;75.60
37806;DHT22;25082;50.870;0.022;2022-10-26T00:07:59;20.50;75.50
37806;DHT22;25082;50.870;0.022;2022-10-26T00:10:25;20.50;75.50
37806;DHT22;25082;50.870;0.022;2022-10-26T00:12:51;20.50;75.50
37806;DHT22;25082;50.870;0.022;2022-10-26T00:15:18;20.50;75.50
37806;DHT22;25082;50.870;0.022;2022-10-26T00:17:45;20.50;75.50
37806;DHT22;25082;50.870;0.022;2022-10-26T00:20:11;20.50;75.50
37806;DHT22;25082;50.870;0.022;2022-10-26T00:22:38;20.50;75.50
37806;DHT22;25082;50.870;0.022;2022-10-26T00:25:04;20.40;75.40
37806;DHT22;25082;50.870;0.022;2022-10-26T00:27:30;20.40;75.40
37806;DHT22;25082;50.870;0.022;2022-10-26T00:29:57;20.40;75.40
37806;DHT22;25082;50.870;0.022;2022-10-26T00:32:23;20.40;75.40
37806;DHT22;25082;50.870;0.022;2022-10-26T00:34:49;20.40;75.40
37806;DHT22;25082;50.870;0.022;2022-10-26T00:37:14;20.40;75.30
37806;DHT22;25082;50.870;0.022;2022-10-26T00:39:40;20.40;75.30
37806;DHT22;25082;50.870;0.022;2022-10-26T00:42:08;20.40;75.40
37806;DHT22;25082;50.870;0.022;2022-10-26T00:47:37;20.40;75.30
37806;DHT22;25082;50.870;0.022;2022-10-26T00:50:31;20.40;75.30
37806;DHT22;25082;50.870;0.022;2022-10-26T00:52:59;20.40;75.30
37806;DHT22;25082;50.870;0.022;2022-10-26T00:55:31;20.40;75.30
37806;DHT22;25082;50.870;0.022;2022-10-26T00:58:00;20.40;75.30
37806;DHT22;25082;50.870;0.022;2022-10-26T01:00:27;20.40;75.30
37806;DHT22;25082;50.870;0.022;2022-10-26T01:02:54;20.40;75.40
37806;DHT22;25082;50.870;0.022;2022-10-26T01:05:22;20.40;75.30
37806;DHT22;25082;50.870;0.022;2022-10-26T01:07:49;20.40;75.30
37806;DHT22;25082;50.870;0.022;2022-10-26T01:10:16;20.40;75.40
37806;DHT22;25082;50.870;0.022;2022-10-26T01:12:43;20.40;75.40
37806;DHT22;25082;50.870;0.022;2022-10-26T01:15:10;20.40;75.30
37806;DHT22;25082;50.870;0.022;2022-10-26T01:17:56;20.40;75.30
37806;DHT22;25082;50.870;0.022;2022-10-26T01:27:10;20.40;75.40
37806;DHT22;25082;50.870;0.022;2022-10-26T01:32:12;20.40;75.30
37806;DHT22;25082;50.870;0.022;2022-10-26T01:35:07;20.40;75.30
37806;DHT22;25082;50.870;0.022;2022-10-26T01:37:38;20.40;75.30
37806;DHT22;25082;50.870;0.022;2022-10-26T01:40:20;20.40;75.30
37806;DHT22;25082;50.870;0.022;2022-10-26T01:42:51;20.40;75.30
37806;DHT22;25082;50.870;0.022;2022-10-26T01:45:18;20.30;75.30
37806;DHT22;25082;50.870;0.022;2022-10-26T01:47:46;20.40;75.40
37806;DHT22;25082;50.870;0.022;2022-10-26T01:50:12;20.40;75.40
37806;DHT22;25082;50.870;0.022;2022-10-26T01:52:39;20.40;75.30
37806;DHT22;25082;50.870;0.022;2022-10-26T02:04:08;20.30;75.30
37806;DHT22;25082;50.870;0.022;2022-10-26T02:15:21;20.30;75.30
37806;DHT22;25082;50.870;0.022;2022-10-26T02:20:23;20.30;75.40
37806;DHT22;25082;50.870;0.022;2022-10-26T02:22:51;20.30;75.40
37806;DHT22;25082;50.870;0.022;2022-10-26T02:25:31;20.30;75.40
37806;DHT22;25082;50.870;0.022;2022-10-26T02:28:05;20.30;75.40
37806;DHT22;25082;50.870;0.022;2022-10-26T02:30:32;20.30;75.40
37806;DHT22;25082;50.870;0.022;2022-10-26T02:33:01;20.30;75.40
37806;DHT22;25082;50.870;0.022;2022-10-26T02:35:32;20.30;75.40
37806;DHT22;25082;50.870;0.022;2022-10-26T02:38:02;20.30;75.40
37806;DHT22;25082;50.870;0.022;2022-10-26T02:40:29;20.20;75.30
37806;DHT22;25082;50.870;0.022;2022-10-26T02:43:02;20.30;75.40
37806;DHT22;25082;50.870;0.022;2022-10-26T02:45:48;20.30;75.40
37806;DHT22;25082;50.870;0.022;2022-10-26T02:48:15;20.30;75.40
37806;DHT22;25082;50.870;0.022;2022-10-26T02:50:43;20.30;75.40
37806;DHT22;25082;50.870;0.022;2022-10-26T02:53:54;20.30;75.40
37806;DHT22;25082;50.870;0.022;2022-10-26T02:57:41;20.30;75.40
37806;DHT22;25082;50.870;0.022;2022-10-26T02:59:37;20.30;75.40
37806;DHT22;25082;50.870;0.022;2022-10-26T03:02:06;20.30;75.40
37806;DHT22;25082;50.870;0.022;2022-10-26T03:04:33;20.30;75.40
37806;DHT22;25082;50.870;0.022;2022-10-26T03:07:00;20.30;75.40
37806;DHT22;25082;50.870;0.022;2022-10-26T03:09:26;20.30;75.40
37806;DHT22;25082;50.870;0.022;2022-10-26T03:11:52;20.30;75.40
37806;DHT22;25082;50.870;0.022;2022-10-26T03:14:18;20.30;75.40
37806;DHT22;25082;50.870;0.022;2022-10-26T03:16:44;20.30;75.40
37806;DHT22;25082;50.870;0.022;2022-10-26T03:19:09;20.30;75.40
37806;DHT22;25082;50.870;0.022;2022-10-26T03:21:35;20.30;75.40
37806;DHT22;25082;50.870;0.022;2022-10-26T03:24:01;20.30;75.40
37806;DHT22;25082;50.870;0.022;2022-10-26T03:26:26;20.20;75.40
37806;DHT22;25082;50.870;0.022;2022-10-26T03:28:52;20.30;75.40
37806;DHT22;25082;50.870;0.022;2022-10-26T03:31:18;20.30;76.00
37806;DHT22;25082;50.870;0.022;2022-10-26T03:33:44;20.30;75.40
37806;DHT22;25082;50.870;0.022;2022-10-26T03:36:09;20.30;75.40
37806;DHT22;25082;50.870;0.022;2022-10-26T03:38:35;20.20;75.40
37806;DHT22;25082;50.870;0.022;2022-10-26T03:41:01;20.20;75.40
37806;DHT22;25082;50.870;0.022;2022-10-26T03:43:27;20.30;75.40
37806;DHT22;25082;50.870;0.022;2022-10-26T03:45:53;20.30;75.50
37806;DHT22;25082;50.870;0.022;2022-10-26T03:48:18;20.30;75.50
37806;DHT22;25082;50.870;0.022;2022-10-26T03:50:44;20.30;75.50
37806;DHT22;25082;50.870;0.022;2022-10-26T03:53:10;20.20;75.40
37806;DHT22;25082;50.870;0.022;2022-10-26T03:55:36;20.20;75.50
37806;DHT22;25082;50.870;0.022;2022-10-26T03:58:01;20.20;75.40
37806;DHT22;25082;50.870;0.022;2022-10-26T04:00:27;20.20;75.40
37806;DHT22;25082;50.870;0.022;2022-10-26T04:02:57;20.20;75.50
37806;DHT22;25082;50.870;0.022;2022-10-26T04:05:25;20.20;75.40
37806;DHT22;25082;50.870;0.022;2022-10-26T04:07:53;20.20;75.40
37806;DHT22;25082;50.870;0.022;2022-10-26T04:10:19;20.20;75.40
37806;DHT22;25082;50.870;0.022;2022-10-26T04:12:45;20.20;75.40
37806;DHT22;25082;50.870;0.022;2022-10-26T04:15:10;20.20;75.40
37806;DHT22;25082;50.870;0.022;2022-10-26T04:17:36;20.20;75.40
37806;DHT22;25082;50.870;0.022;2022-10-26T04:20:02;20.20;75.40
37806;DHT22;25082;50.870;0.022;2022-10-26T04:22:28;20.20;75.40
37806;DHT22;25082;50.870;0.022;2022-10-26T04:24:53;20.20;75.40
37806;DHT22;25082;50.870;0.022;2022-10-26T04:27:19;20.20;75.40
37806;DHT22;25082;50.870;0.022;2022-10-26T04:29:45;20.20;75.40
37806;DHT22;25082;50.870;0.022;2022-10-26T04:32:11;20.20;75.40
37806;DHT22;25082;50.870;0.022;2022-10-26T04:34:36;20.20;75.40
37806;DHT22;25082;50.870;0.022;2022-10-26T04:37:02;20.20;75.40
37806;DHT22;25082;50.870;0.022;2022-10-26T04:39:28;20.20;75.40
37806;DHT22;25082;50.870;0.022;2022-10-26T04:41:53;20.20;75.40
37806;DHT22;25082;50.870;0.022;2022-10-26T04:44:19;20.20;75.40
37806;DHT22;25082;50.870;0.022;2022-10-26T04:46:45;20.20;75.40
37806;DHT22;25082;50.870;0.022;2022-10-26T04:49:10;20.20;75.40
37806;DHT22;25082;50.870;0.022;2022-10-26T04:51:36;20.20;75.40
37806;DHT22;25082;50.870;0.022;2022-10-26T04:54:02;20.20;75.40
37806;DHT22;25082;50.870;0.022;2022-10-26T04:56:28;20.20;75.40
37806;DHT22;25082;50.870;0.022;2022-10-26T04:58:54;20.20;75.40
37806;DHT22;25082;50.870;0.022;2022-10-26T05:01:20;20.20;75.50
37806;DHT22;25082;50.870;0.022;2022-10-26T05:03:52;20.20;75.50
37806;DHT22;25082;50.870;0.022;2022-10-26T05:06:20;20.20;76.00
37806;DHT22;25082;50.870;0.022;2022-10-26T05:08:46;20.20;75.50
37806;DHT22;25082;50.870;0.022;2022-10-26T05:11:12;20.20;75.50
37806;DHT22;25082;50.870;0.022;2022-10-26T05:13:37;20.20;75.50
37806;DHT22;25082;50.870;0.022;2022-10-26T05:16:03;20.20;75.50
37806;DHT22;25082;50.870;0.022;2022-10-26T05:18:29;20.20;75.60
37806;DHT22;25082;50.870;0.022;2022-10-26T05:20:55;20.20;75.60
37806;DHT22;25082;50.870;0.022;2022-10-26T05:23:21;20.20;75.60
37806;DHT22;25082;50.870;0.022;2022-10-26T05:25:48;20.20;75.60
37806;DHT22;25082;50.870;0.022;2022-10-26T05:28:14;20.20;75.60
37806;DHT22;25082;50.870;0.022;2022-10-26T05:30:42;20.20;75.60
37806;DHT22;25082;50.870;0.022;2022-10-26T05:33:09;20.20;75.60
37806;DHT22;25082;50.870;0.022;2022-10-26T05:35:35;20.20;75.60
37806;DHT22;25082;50.870;0.022;2022-10-26T05:38:08;20.20;75.60
37806;DHT22;25082;50.870;0.022;2022-10-26T05:40:34;20.10;75.60
37806;DHT22;25082;50.870;0.022;2022-10-26T05:43:00;20.10;75.50
37806;DHT22;25082;50.870;0.022;2022-10-26T05:45:26;20.10;75.60
37806;DHT22;25082;50.870;0.022;2022-10-26T05:47:52;20.10;75.60
37806;DHT22;25082;50.870;0.022;2022-10-26T05:50:18;20.20;75.70
37806;DHT22;25082;50.870;0.022;2022-10-26T05:52:45;20.10;75.60
37806;DHT22;25082;50.870;0.022;2022-10-26T05:55:13;20.20;75.60
37806;DHT22;25082;50.870;0.022;2022-10-26T05:57:40;20.10;75.60
37806;DHT22;25082;50.870;0.022;2022-10-26T06:00:17;20.10;75.60
37806;DHT22;25082;50.870;0.022;2022-10-26T06:05:29;20.10;75.50
37806;DHT22;25082;50.870;0.022;2022-10-26T06:07:57;20.20;75.60
37806;DHT22;25082;50.870;0.022;2022-10-26T06:10:23;20.10;75.60
37806;DHT22;25082;50.870;0.022;2022-10-26T06:12:49;20.10;75.60
37806;DHT22;25082;50.870;0.022;2022-10-26T06:15:18;20.10;75.60
37806;DHT22;25082;50.870;0.022;2022-10-26T06:17:57;20.10;75.50
37806;DHT22;25082;50.870;0.022;2022-10-26T06:31:22;20.10;75.60
37806;DHT22;25082;50.870;0.022;2022-10-26T06:33:56;20.10;75.60
37806;DHT22;25082;50.870;0.022;2022-10-26T06:36:25;20.10;75.60
37806;DHT22;25082;50.870;0.022;2022-10-26T06:39:14;20.20;75.60
37806;DHT22;25082;50.870;0.022;2022-10-26T06:41:40;20.10;75.50
37806;DHT22;25082;50.870;0.022;2022-10-26T06:44:11;20.10;75.50
37806;DHT22;25082;50.870;0.022;2022-10-26T06:46:47;20.10;75.60
37806;DHT22;25082;50.870;0.022;2022-10-26T06:49:39;20.10;75.50
37806;DHT22;25082;50.870;0.022;2022-10-26T06:52:39;20.20;75.60
37806;DHT22;25082;50.870;0.022;2022-10-26T06:55:13;20.10;75.50
37806;DHT22;25082;50.870;0.022;2022-10-26T06:57:40;20.10;75.50
37806;DHT22;25082;50.870;0.022;2022-10-26T07:02:40;20.10;75.50
37806;DHT22;25082;50.870;0.022;2022-10-26T07:05:05;20.10;75.50
37806;DHT22;25082;50.870;0.022;2022-10-26T07:07:40;20.10;75.50
37806;DHT22;25082;50.870;0.022;2022-10-26T07:10:07;20.10;75.60
37806;DHT22;25082;50.870;0.022;2022-10-26T07:12:32;20.10;75.50
37806;DHT22;25082;50.870;0.022;2022-10-26T07:14:59;20.10;75.50
37806;DHT22;25082;50.870;0.022;2022-10-26T07:17:25;20.10;75.50
37806;DHT22;25082;50.870;0.022;2022-10-26T07:19:53;20.10;75.50
37806;DHT22;25082;50.870;0.022;2022-10-26T07:22:19;20.10;75.60
37806;DHT22;25082;50.870;0.022;2022-10-26T07:24:45;20.10;75.50
37806;DHT22;25082;50.870;0.022;2022-10-26T07:27:14;20.10;75.50
37806;DHT22;25082;50.870;0.022;2022-10-26T07:29:40;20.10;75.60
37806;DHT22;25082;50.870;0.022;2022-10-26T07:32:06;20.10;75.50
37806;DHT22;25082;50.870;0.022;2022-10-26T07:34:32;20.10;76.10
37806;DHT22;25082;50.870;0.022;2022-10-26T07:37:00;20.10;75.50
37806;DHT22;25082;50.870;0.022;2022-10-26T07:39:26;20.10;75.60
37806;DHT22;25082;50.870;0.022;2022-10-26T07:41:52;20.10;75.60
37806;DHT22;25082;50.870;0.022;2022-10-26T07:44:18;20.10;75.60
37806;DHT22;25082;50.870;0.022;2022-10-26T07:46:43;20.10;75.60
37806;DHT22;25082;50.870;0.022;2022-10-26T07:49:09;20.10;75.60
37806;DHT22;25082;50.870;0.022;2022-10-26T07:51:36;20.10;75.60
37806;DHT22;25082;50.870;0.022;2022-10-26T07:54:02;20.10;75.60
37806;DHT22;25082;50.870;0.022;2022-10-26T07:56:27;20.10;75.60
37806;DHT22;25082;50.870;0.022;2022-10-26T07:58:53;20.10;75.60
37806;DHT22;25082;50.870;0.022;2022-10-26T08:01:19;20.10;75.60
37806;DHT22;25082;50.870;0.022;2022-10-26T08:03:45;20.10;75.60
37806;DHT22;25082;50.870;0.022;2022-10-26T08:06:11;20.10;75.60
37806;DHT22;25082;50.870;0.022;2022-10-26T08:08:36;20.10;75.60
37806;DHT22;25082;50.870;0.022;2022-10-26T08:11:03;20.10;75.60
37806;DHT22;25082;50.870;0.022;2022-10-26T08:13:29;20.10;75.60
37806;DHT22;25082;50.870;0.022;2022-10-26T08:15:56;20.10;75.70
37806;DHT22;25082;50.870;0.022;2022-10-26T08:18:22;20.10;75.70
37806;DHT22;25082;50.870;0.022;2022-10-26T08:20:48;20.10;75.70
37806;DHT22;25082;50.870;0.022;2022-10-26T08:23:14;20.10;75.70
37806;DHT22;25082;50.870;0.022;2022-10-26T08:25:39;20.10;75.70
37806;DHT22;25082;50.870;0.022;2022-10-26T08:28:05;20.10;75.70
37806;DHT22;25082;50.870;0.022;2022-10-26T08:30:31;20.10;75.70
37806;DHT22;25082;50.870;0.022;2022-10-26T08:33:04;20.10;75.70
37806;DHT22;25082;50.870;0.022;2022-10-26T08:35:30;20.10;75.70
37806;DHT22;25082;50.870;0.022;2022-10-26T08:37:56;20.10;75.70
37806;DHT22;25082;50.870;0.022;2022-10-26T08:40:35;20.10;75.70
37806;DHT22;25082;50.870;0.022;2022-10-26T08:43:21;20.10;75.70
37806;DHT22;25082;50.870;0.022;2022-10-26T08:45:57;20.10;75.70
37806;DHT22;25082;50.870;0.022;2022-10-26T08:48:30;20.10;75.70
37806;DHT22;25082;50.870;0.022;2022-10-26T08:56:17;20.10;75.70
37806;DHT22;25082;50.870;0.022;2022-10-26T09:01:43;20.20;75.80
37806;DHT22;25082;50.870;0.022;2022-10-26T09:04:12;20.10;75.70
37806;DHT22;25082;50.870;0.022;2022-10-26T09:26:00;20.20;75.80
37806;DHT22;25082;50.870;0.022;2022-10-26T09:28:29;20.20;75.90
37806;DHT22;25082;50.870;0.022;2022-10-26T09:30:58;20.20;75.80
37806;DHT22;25082;50.870;0.022;2022-10-26T09:33:25;20.20;75.80
37806;DHT22;25082;50.870;0.022;2022-10-26T09:36:03;20.20;75.90
37806;DHT22;25082;50.870;0.022;2022-10-26T09:38:55;20.30;76.00
37806;DHT22;25082;50.870;0.022;2022-10-26T09:41:46;20.30;75.90
37806;DHT22;25082;50.870;0.022;2022-10-26T09:44:35;20.30;75.90
37806;DHT22;25082;50.870;0.022;2022-10-26T09:47:25;20.30;76.00
37806;DHT22;25082;50.870;0.022;2022-10-26T09:49:57;20.30;75.90
37806;DHT22;25082;50.870;0.022;2022-10-26T09:52:25;20.30;75.90
37806;DHT22;25082;50.870;0.022;2022-10-26T09:54:54;20.30;75.90
37806;DHT22;25082;50.870;0.022;2022-10-26T09:57:20;20.60;76.00
37806;DHT22;25082;50.870;0.022;2022-10-26T09:59:46;20.30;75.80
37806;DHT22;25082;50.870;0.022;2022-10-26T10:02:37;20.30;75.80
37806;DHT22;25082;50.870;0.022;2022-10-26T10:07:48;20.40;76.00
37806;DHT22;25082;50.870;0.022;2022-10-26T10:10:23;20.30;75.90
37806;DHT22;25082;50.870;0.022;2022-10-26T10:12:50;20.40;76.00
37806;DHT22;25082;50.870;0.022;2022-10-26T10:15:22;20.40;76.10
37806;DHT22;25082;50.870;0.022;2022-10-26T10:17:49;20.40;76.30
37806;DHT22;25082;50.870;0.022;2022-10-26T10:20:32;20.40;76.00
37806;DHT22;25082;50.870;0.022;2022-10-26T10:22:59;20.40;75.90
37806;DHT22;25082;50.870;0.022;2022-10-26T10:25:35;20.40;75.90
37806;DHT22;25082;50.870;0.022;2022-10-26T10:28:02;20.40;75.90
37806;DHT22;25082;50.870;0.022;2022-10-26T10:30:31;20.40;75.80
37806;DHT22;25082;50.870;0.022;2022-10-26T10:33:07;20.40;75.80
37806;DHT22;25082;50.870;0.022;2022-10-26T10:35:35;20.50;75.80
37806;DHT22;25082;50.870;0.022;2022-10-26T10:38:02;20.50;75.80
37806;DHT22;25082;50.870;0.022;2022-10-26T10:40:29;20.40;75.70
37806;DHT22;25082;50.870;0.022;2022-10-26T10:43:22;20.50;75.70
37806;DHT22;25082;50.870;0.022;2022-10-26T10:45:50;20.50;75.70
37806;DHT22;25082;50.870;0.022;2022-10-26T10:48:19;20.50;75.80
37806;DHT22;25082;50.870;0.022;2022-10-26T10:51:04;20.50;75.80
37806;DHT22;25082;50.870;0.022;2022-10-26T10:53:36;20.50;75.70
37806;DHT22;25082;50.870;0.022;2022-10-26T10:59:02;20.50;75.70
37806;DHT22;25082;50.870;0.022;2022-10-26T11:01:38;20.50;75.60
37806;DHT22;25082;50.870;0.022;2022-10-26T11:06:38;20.50;75.70
37806;DHT22;25082;50.870;0.022;2022-10-26T11:09:12;20.50;75.90
37806;DHT22;25082;50.870;0.022;2022-10-26T11:11:45;20.60;75.90
37806;DHT22;25082;50.870;0.022;2022-10-26T11:14:25;20.50;75.70
37806;DHT22;25082;50.870;0.022;2022-10-26T11:17:03;20.60;76.30
37806;DHT22;25082;50.870;0.022;2022-10-26T11:19:44;20.60;75.70
37806;DHT22;25082;50.870;0.022;2022-10-26T11:22:14;20.60;75.70
37806;DHT22;25082;50.870;0.022;2022-10-26T11:24:55;20.60;75.70
37806;DHT22;25082;50.870;0.022;2022-10-26T11:27:35;20.60;75.70
37806;DHT22;25082;50.870;0.022;2022-10-26T11:30:18;20.60;75.90
37806;DHT22;25082;50.870;0.022;2022-10-26T11:33:03;20.60;75.70
37806;DHT22;25082;50.870;0.022;2022-10-26T11:35:55;20.70;75.70
37806;DHT22;25082;50.870;0.022;2022-10-26T11:44:35;20.70;75.70
37806;DHT22;25082;50.870;0.022;2022-10-26T11:47:13;20.70;75.90
37806;DHT22;25082;50.870;0.022;2022-10-26T11:55:14;20.80;75.80
37806;DHT22;25082;50.870;0.022;2022-10-26T11:57:42;20.80;75.70
37806;DHT22;25082;50.870;0.022;2022-10-26T12:00:18;20.80;75.70
37806;DHT22;25082;50.870;0.022;2022-10-26T12:02:51;20.80;75.70
37806;DHT22;25082;50.870;0.022;2022-10-26T12:07:57;20.80;76.00
37806;DHT22;25082;50.870;0.022;2022-10-26T12:10:28;20.90;75.70
37806;DHT22;25082;50.870;0.022;2022-10-26T12:13:22;20.80;75.50
37806;DHT22;25082;50.870;0.022;2022-10-26T12:19:11;20.90;75.50
37806;DHT22;25082;50.870;0.022;2022-10-26T12:21:39;20.90;75.60
37806;DHT22;25082;50.870;0.022;2022-10-26T12:26:58;20.90;75.50
37806;DHT22;25082;50.870;0.022;2022-10-26T12:29:30;20.90;75.40
37806;DHT22;25082;50.870;0.022;2022-10-26T12:31:56;20.90;75.40
37806;DHT22;25082;50.870;0.022;2022-10-26T12:34:24;21.00;75.50
37806;DHT22;25082;50.870;0.022;2022-10-26T12:37:09;21.00;75.50
37806;DHT22;25082;50.870;0.022;2022-10-26T12:39:38;21.00;75.40
37806;DHT22;25082;50.870;0.022;2022-10-26T12:47:01;21.00;75.50
37806;DHT22;25082;50.870;0.022;2022-10-26T12:49:58;21.00;75.50
37806;DHT22;25082;50.870;0.022;2022-10-26T13:06:10;21.00;75.50
37806;DHT22;25082;50.870;0.022;2022-10-26T13:08:56;21.00;75.30
37806;DHT22;25082;50.870;0.022;2022-10-26T13:13:55;21.00;75.30
37806;DHT22;25082;50.870;0.022;2022-10-26T13:16:24;21.10;74.90
37806;DHT22;25082;50.870;0.022;2022-10-26T13:18:51;21.00;74.80
37806;DHT22;25082;50.870;0.022;2022-10-26T13:21:19;21.10;74.80
37806;DHT22;25082;50.870;0.022;2022-10-26T13:26:25;21.00;74.70
37806;DHT22;25082;50.870;0.022;2022-10-26T13:28:56;21.00;74.30
37806;DHT22;25082;50.870;0.022;2022-10-26T13:34:19;21.00;74.50
37806;DHT22;25082;50.870;0.022;2022-10-26T13:37:00;21.00;74.20
37806;DHT22;25082;50.870;0.022;2022-10-26T13:39:31;20.90;74.50
37806;DHT22;25082;50.870;0.022;2022-10-26T13:41:59;21.00;74.70
37806;DHT22;25082;50.870;0.022;2022-10-26T13:44:41;21.00;74.70
37806;DHT22;25082;50.870;0.022;2022-10-26T13:47:14;21.00;74.70
37806;DHT22;25082;50.870;0.022;2022-10-26T13:49:45;20.90;74.60
37806;DHT22;25082;50.870;0.022;2022-10-26T13:52:27;20.90;74.70
37806;DHT22;25082;50.870;0.022;2022-10-26T13:55:00;20.90;74.60
37806;DHT22;25082;50.870;0.022;2022-10-26T14:00:00;20.90;74.60
37806;DHT22;25082;50.870;0.022;2022-10-26T14:02:32;21.00;74.60
37806;DHT22;25082;50.870;0.022;2022-10-26T14:05:04;20.90;74.50
37806;DHT22;25082;50.870;0.022;2022-10-26T14:07:56;20.90;74.20
37806;DHT22;25082;50.870;0.022;2022-10-26T14:12:49;20.90;73.70
37806;DHT22;25082;50.870;0.022;2022-10-26T14:15:30;20.90;74.90
37806;DHT22;25082;50.870;0.022;2022-10-26T14:17:58;20.90;73.90
37806;DHT22;25082;50.870;0.022;2022-10-26T14:20:25;20.90;74.30
37806;DHT22;25082;50.870;0.022;2022-10-26T14:22:52;20.90;74.40
37806;DHT22;25082;50.870;0.022;2022-10-26T14:25:19;20.90;74.20
37806;DHT22;25082;50.870;0.022;2022-10-26T14:27:45;20.80;73.80
37806;DHT22;25082;50.870;0.022;2022-10-26T14:30:29;20.90;73.70
37806;DHT22;25082;50.870;0.022;2022-10-26T14:32:56;20.90;73.70
37806;DHT22;25082;50.870;0.022;2022-10-26T14:35:24;20.90;73.50
37806;DHT22;25082;50.870;0.022;2022-10-26T14:38:03;20.80;73.10
37806;DHT22;25082;50.870;0.022;2022-10-26T14:40:32;20.90;73.10
37806;DHT22;25082;50.870;0.022;2022-10-26T14:43:01;20.90;73.60
37806;DHT22;25082;50.870;0.022;2022-10-26T14:45:28;20.80;73.50
37806;DHT22;25082;50.870;0.022;2022-10-26T14:47:59;20.90;73.60
37806;DHT22;25082;50.870;0.022;2022-10-26T14:50:25;20.90;73.60
37806;DHT22;25082;50.870;0.022;2022-10-26T14:53:03;20.90;73.30
37806;DHT22;25082;50.870;0.022;2022-10-26T14:55:51;20.80;73.90
37806;DHT22;25082;50.870;0.022;2022-10-26T14:58:23;20.80;73.50
37806;DHT22;25082;50.870;0.022;2022-10-26T15:04:05;20.80;72.70
37806;DHT22;25082;50.870;0.022;2022-10-26T15:06:36;20.80;72.70
37806;DHT22;25082;50.870;0.022;2022-10-26T15:09:03;20.90;73.00
37806;DHT22;25082;50.870;0.022;2022-10-26T15:11:32;20.90;73.30
37806;DHT22;25082;50.870;0.022;2022-10-26T15:13:59;20.90;73.60
37806;DHT22;25082;50.870;0.022;2022-10-26T15:16:27;20.80;73.30
37806;DHT22;25082;50.870;0.022;2022-10-26T15:18:57;20.90;73.30
37806;DHT22;25082;50.870;0.022;2022-10-26T15:21:34;20.80;73.20
37806;DHT22;25082;50.870;0.022;2022-10-26T15:24:00;20.80;73.40
37806;DHT22;25082;50.870;0.022;2022-10-26T15:26:27;20.80;73.30
37806;DHT22;25082;50.870;0.022;2022-10-26T15:28:53;20.80;73.30
37806;DHT22;25082;50.870;0.022;2022-10-26T15:36:17;20.80;73.40
37806;DHT22;25082;50.870;0.022;2022-10-26T15:38:44;20.80;73.50
37806;DHT22;25082;50.870;0.022;2022-10-26T15:41:16;20.80;73.50
37806;DHT22;25082;50.870;0.022;2022-10-26T15:43:46;20.80;73.50
37806;DHT22;25082;50.870;0.022;2022-10-26T15:46:12;20.80;73.50
37806;DHT22;25082;50.870;0.022;2022-10-26T15:48:38;20.80;73.50
37806;DHT22;25082;50.870;0.022;2022-10-26T15:51:06;20.80;73.60
37806;DHT22;25082;50.870;0.022;2022-10-26T15:53:35;20.70;73.90
37806;DHT22;25082;50.870;0.022;2022-10-26T15:56:01;20.80;73.90
37806;DHT22;25082;50.870;0.022;2022-10-26T15:58:28;20.80;74.10
37806;DHT22;25082;50.870;0.022;2022-10-26T16:00:55;20.80;74.10
37806;DHT22;25082;50.870;0.022;2022-10-26T16:03:22;20.80;74.10
37806;DHT22;25082;50.870;0.022;2022-10-26T16:06:00;20.80;74.10
37806;DHT22;25082;50.870;0.022;2022-10-26T16:08:29;20.80;74.20
37806;DHT22;25082;50.870;0.022;2022-10-26T16:10:55;20.80;74.20
37806;DHT22;25082;50.870;0.022;2022-10-26T16:13:20;20.80;74.20
37806;DHT22;25082;50.870;0.022;2022-10-26T16:15:46;20.80;74.20
37806;DHT22;25082;50.870;0.022;2022-10-26T16:18:13;20.80;74.20
37806;DHT22;25082;50.870;0.022;2022-10-26T16:20:39;20.80;74.30
37806;DHT22;25082;50.870;0.022;2022-10-26T16:23:05;20.80;74.30
37806;DHT22;25082;50.870;0.022;2022-10-26T16:25:38;20.80;74.30
37806;DHT22;25082;50.870;0.022;2022-10-26T16:28:04;20.80;74.30
37806;DHT22;25082;50.870;0.022;2022-10-26T16:30:30;20.80;74.40
37806;DHT22;25082;50.870;0.022;2022-10-26T16:32:56;20.80;74.40
37806;DHT22;25082;50.870;0.022;2022-10-26T16:35:22;20.80;74.40
37806;DHT22;25082;50.870;0.022;2022-10-26T16:37:47;20.80;74.50
37806;DHT22;25082;50.870;0.022;2022-10-26T16:40:13;20.80;74.50
37806;DHT22;25082;50.870;0.022;2022-10-26T16:42:39;20.80;74.60
37806;DHT22;25082;50.870;0.022;2022-10-26T16:45:10;20.80;74.70
37806;DHT22;25082;50.870;0.022;2022-10-26T16:47:36;20.80;75.00
37806;DHT22;25082;50.870;0.022;2022-10-26T16:50:05;20.80;75.20
37806;DHT22;25082;50.870;0.022;2022-10-26T16:52:32;20.70;75.10
37806;DHT22;25082;50.870;0.022;2022-10-26T16:54:58;20.80;75.10
37806;DHT22;25082;50.870;0.022;2022-10-26T16:57:24;20.70;75.00
37806;DHT22;25082;50.870;0.022;2022-10-26T16:59:50;20.70;75.00
37806;DHT22;25082;50.870;0.022;2022-10-26T17:02:16;20.80;75.00
37806;DHT22;25082;50.870;0.022;2022-10-26T17:04:42;20.70;74.90
37806;DHT22;25082;50.870;0.022;2022-10-26T17:07:08;20.70;74.90
37806;DHT22;25082;50.870;0.022;2022-10-26T17:09:34;20.80;75.00
37806;DHT22;25082;50.870;0.022;2022-10-26T17:12:00;20.80;74.90
37806;DHT22;25082;50.870;0.022;2022-10-26T17:14:26;20.70;74.90
37806;DHT22;25082;50.870;0.022;2022-10-26T17:16:52;20.70;74.90
37806;DHT22;25082;50.870;0.022;2022-10-26T17:19:17;20.80;75.00
37806;DHT22;25082;50.870;0.022;2022-10-26T17:21:43;20.70;74.80
37806;DHT22;25082;50.870;0.022;2022-10-26T17:24:09;20.80;74.80
37806;DHT22;25082;50.870;0.022;2022-10-26T17:26:35;20.80;74.70
37806;DHT22;25082;50.870;0.022;2022-10-26T17:29:01;20.80;74.80
37806;DHT22;25082;50.870;0.022;2022-10-26T17:31:27;20.70;74.70
37806;DHT22;25082;50.870;0.022;2022-10-26T17:33:55;20.70;74.70
37806;DHT22;25082;50.870;0.022;2022-10-26T17:36:22;20.80;74.80
37806;DHT22;25082;50.870;0.022;2022-10-26T17:38:51;20.80;74.80
37806;DHT22;25082;50.870;0.022;2022-10-26T17:41:19;20.70;74.80
37806;DHT22;25082;50.870;0.022;2022-10-26T17:43:46;20.80;74.90
37806;DHT22;25082;50.870;0.022;2022-10-26T17:46:22;20.80;74.80
37806;DHT22;25082;50.870;0.022;2022-10-26T17:48:53;20.70;74.70
37806;DHT22;25082;50.870;0.022;2022-10-26T17:51:19;20.70;74.70
37806;DHT22;25082;50.870;0.022;2022-10-26T17:53:46;20.70;74.70
37806;DHT22;25082;50.870;0.022;2022-10-26T17:56:22;20.80;74.80
37806;DHT22;25082;50.870;0.022;2022-10-26T17:58:57;20.80;74.80
37806;DHT22;25082;50.870;0.022;2022-10-26T18:01:24;20.80;74.80
37806;DHT22;25082;50.870;0.022;2022-10-26T18:03:51;20.70;74.80
37806;DHT22;25082;50.870;0.022;2022-10-26T18:06:17;20.80;74.90
37806;DHT22;25082;50.870;0.022;2022-10-26T18:08:44;20.80;74.90
37806;DHT22;25082;50.870;0.022;2022-10-26T18:11:19;20.80;74.90